Huxford, AL (36543)

4:51 AM CDT on August 02, 2015 (GMT -0500)
B.E.C. | | Change Station
CLOSE
Current Station
Personal Weather Station
Location: Atmore, AL
Elevation: 272 ft
Nearby Weather Stations

Elev 272 ft 31.07 °N, 87.37 °W | Updated 55 seconds ago

Clear
Clear
73.9 °F
Feels Like 72 °F
N
0.0
Wind Variable Wind from WNW
Gusts 9.0 mph

Today
High -- | Low -- °F
--% Chance of Precip.
Yesterday
High -- | Low -- °F
Precip. -- in
6:07 AM 7:44 PM
Waning Gibbous, 95% visible
Pressure 29.86 in
Visibility 10.0 miles
Clouds Clear
Heat Index 72 °F
Dew Point 72 °F
Humidity 92%
Rainfall 0.00 in
Snow Depth Not available.
UV 0 out of 12
Pollen 3.20 out of 12
Air Quality Not available.
Flu Activity Not available.
METAR KGZH 020853Z AUTO 33004KT 10SM CLR 22/21 A2987 RMK AO2 SLP110 T02220211 55009

More Conditions Fewer Conditions

Pressure 29.86 in
Visibility 10.0 miles
Clouds Clear
Heat Index 72 °F
Dew Point 72 °F
Humidity 92%
Rainfall 0.00 in
Snow Depth Not available.
UV 0 out of 12
Pollen 3.20 out of 12
Air Quality Not available.
Flu Activity Not available.
METAR KGZH 020853Z AUTO 33004KT 10SM CLR 22/21 A2987 RMK AO2 SLP110 T02220211 55009

More Conditions Fewer Conditions

10-Day Weather Forecast

×

Almanac

Astronomy

Aug. 02, 2015 Rise Set
Actual Time
Civil Twilight
Nautical Twilight
Astronomical Twilight
Moon
Length of Visible Light
Length of Day
Tomorrow will be .
, % of the Moon is Illuminated

Today's Extremes

State Highs State Lows

Community

WunderPhotos

Upload Photos

1,843,213 photos uploaded!

WunderBlogs® & News

Nearby

Air Quality

  Air Quality AQ Index Pollutant
Not available.

Snow Depth

Station Depth Elevation

Earthquake Activity

City Distance Mag. Time & Date
Minimum magnitude displayed is 2.5.

Coastal Water Temperatures

Place Temperature

Stations

Nearby Weather Stations

Station Location Temp. Windchill Dew Point Humidity Wind Precip. Elev Updated Type